createdAt,value
2022-08-08T03:18:16.462Z,1.20
2022-08-08T03:21:58.587Z,1.00
2022-08-08T03:25:21.737Z,1.23
2022-08-08T03:28:47.446Z,1.37
2022-08-08T03:32:14.362Z,1.23
2022-08-08T03:35:30.138Z,1.43
2022-08-08T03:38:56.568Z,1.33
2022-08-08T03:42:27.292Z,1.30
2022-08-08T03:46:06.416Z,1.10
2022-08-08T03:49:56.535Z,1.20
2022-08-08T03:52:58.460Z,1.30
2022-08-08T03:56:10.387Z,1.40
2022-08-08T03:59:57.411Z,1.50
2022-08-08T04:03:58.214Z,1.20
2022-08-08T04:07:00.957Z,1.33
2022-08-08T04:10:18.749Z,1.30
2022-08-08T04:13:28.566Z,1.40
2022-08-08T04:16:51.554Z,1.30
2022-08-08T04:20:05.042Z,1.20
2022-08-08T04:23:19.805Z,1.20
2022-08-08T04:26:35.471Z,1.30
2022-08-08T04:30:17.698Z,1.53
2022-08-08T04:33:32.126Z,1.27
2022-08-08T04:36:55.764Z,1.30
2022-08-08T04:40:10.680Z,1.30
2022-08-08T04:43:46.272Z,1.33
2022-08-08T04:47:05.437Z,1.43
2022-08-08T04:50:38.189Z,1.40
2022-08-08T04:54:39.182Z,1.20
2022-08-08T04:57:22.996Z,1.63
2022-08-08T07:34:08.770Z,0.70
2022-08-08T07:37:23.414Z,0.77
2022-08-08T07:40:36.964Z,0.80
2022-08-08T07:43:54.729Z,0.80
2022-08-08T07:47:04.989Z,0.83
2022-08-08T07:50:22.140Z,0.63
2022-08-08T07:54:01.061Z,0.53
2022-08-08T07:57:19.939Z,0.80
2022-08-08T08:00:40.293Z,0.80
2022-08-08T08:04:04.727Z,0.60
2022-08-08T08:07:19.094Z,0.53
2022-08-08T08:10:40.682Z,0.70
2022-08-08T08:14:08.524Z,0.90
2022-08-08T08:17:36.429Z,0.70
2022-08-08T08:20:57.117Z,0.80
2022-08-08T08:24:10.644Z,1.13
2022-08-08T08:27:22.003Z,1.10
2022-08-08T08:30:36.525Z,0.70
2022-08-08T08:33:47.289Z,0.70
2022-08-08T08:37:07.829Z,0.83
2022-08-08T08:40:26.599Z,0.80
2022-08-08T08:43:38.314Z,0.90
2022-08-08T08:46:58.537Z,0.87
2022-08-08T08:50:31.840Z,1.10
2022-08-08T08:53:54.958Z,0.90
2022-08-08T08:57:15.536Z,0.90
2022-08-08T09:00:44.446Z,0.80
2022-08-08T09:04:06.885Z,0.80
2022-08-08T09:07:38.845Z,0.90
2022-08-08T09:10:57.518Z,0.70
2022-08-08T09:14:10.047Z,0.60
2022-08-08T09:17:40.749Z,0.73
2022-08-08T09:22:01.475Z,1.20
2022-08-08T09:24:31.167Z,0.93
2022-08-08T09:27:57.986Z,0.70
2022-08-08T09:31:15.498Z,0.60
2022-08-08T09:34:42.128Z,0.80
2022-08-08T09:38:04.309Z,0.80
2022-08-08T09:42:15.059Z,0.73
2022-08-08T09:45:20.866Z,0.70
2022-08-08T09:48:46.599Z,0.77
2022-08-08T09:52:08.121Z,0.80
2022-08-08T09:55:51.321Z,0.80
2022-08-08T09:58:58.372Z,0.80
2022-08-08T10:02:19.853Z,0.70
2022-08-08T10:05:39.843Z,0.70
2022-08-08T10:08:51.674Z,0.80
2022-08-08T10:12:27.036Z,1.07
2022-08-08T10:15:42.112Z,0.90
2022-08-08T10:19:11.658Z,0.73
2022-08-08T10:22:33.712Z,0.67
2022-08-08T10:25:52.459Z,0.80
2022-08-08T10:29:11.504Z,1.00
2022-08-08T10:32:36.228Z,0.90
2022-08-08T10:36:08.127Z,0.90
2022-08-08T10:39:43.643Z,0.90
2022-08-08T10:43:04.228Z,0.97
2022-08-08T10:46:30.101Z,1.10
2022-08-08T10:50:01.686Z,0.77
2022-08-08T10:53:13.123Z,0.63
2022-08-08T10:56:32.555Z,0.90
2022-08-08T10:59:45.470Z,0.80
2022-08-08T11:03:06.398Z,1.00
2022-08-08T11:06:19.597Z,0.80
2022-08-08T11:09:32.118Z,0.80
2022-08-08T11:13:12.221Z,0.90
2022-08-08T11:16:34.342Z,0.83
2022-08-08T11:19:46.537Z,0.97
2022-08-08T11:23:05.681Z,1.00
2022-08-08T11:26:20.968Z,0.80
2022-08-08T11:29:58.128Z,1.03
2022-08-08T11:33:13.224Z,1.20
2022-08-08T11:36:27.888Z,0.97
2022-08-08T11:39:57.435Z,0.90
2022-08-08T11:43:11.533Z,0.63
2022-08-08T11:46:30.563Z,1.00
2022-08-08T11:49:44.673Z,0.77
2022-08-08T11:52:59.368Z,0.80
2022-08-08T11:56:22.365Z,0.77
2022-08-08T11:59:57.809Z,0.97
2022-08-08T12:03:21.447Z,0.87
2022-08-08T12:06:34.367Z,0.70
2022-08-08T12:09:56.933Z,0.80
2022-08-08T12:13:12.124Z,0.73
2022-08-08T12:16:28.211Z,0.83
2022-08-08T12:19:57.393Z,0.83
2022-08-08T12:23:25.026Z,0.80
2022-08-08T12:26:41.716Z,0.80
2022-08-08T12:29:57.402Z,0.90
2022-08-08T12:33:18.654Z,0.87
2022-08-08T12:36:46.413Z,0.80
2022-08-08T12:40:02.816Z,0.87
2022-08-08T12:43:16.692Z,1.00
2022-08-08T12:46:32.756Z,1.00
2022-08-08T12:49:54.481Z,0.73
2022-08-08T12:53:05.845Z,0.90
2022-08-08T12:56:24.190Z,0.90
2022-08-08T13:00:04.380Z,0.97
2022-08-08T13:03:25.844Z,0.87
2022-08-08T13:06:54.556Z,0.77
2022-08-08T13:10:10.644Z,0.87
2022-08-08T13:13:28.230Z,1.03
2022-08-08T13:16:49.086Z,0.87
2022-08-08T13:20:06.518Z,0.90
2022-08-08T13:23:30.730Z,0.90
2022-08-08T13:26:46.124Z,0.90
2022-08-08T13:30:00.583Z,0.90
2022-08-08T13:33:18.355Z,1.03
2022-08-08T13:36:32.127Z,0.90
2022-08-08T13:39:42.681Z,1.00
2022-08-08T13:43:03.973Z,0.90
2022-08-08T13:46:27.353Z,0.73
2022-08-08T13:50:35.746Z,0.83
2022-08-08T13:53:24.901Z,0.83
2022-08-08T13:56:44.755Z,0.80
2022-08-08T14:00:11.443Z,0.87
2022-08-08T14:03:53.848Z,0.80
2022-08-08T14:07:02.693Z,0.80
2022-08-08T14:10:17.612Z,0.83
2022-08-08T14:14:00.284Z,0.77
2022-08-08T14:17:22.527Z,0.83
2022-08-08T14:20:58.148Z,0.67
2022-08-08T14:24:09.785Z,0.70
2022-08-08T14:27:28.713Z,0.70
2022-08-08T14:30:38.834Z,0.87
2022-08-08T14:33:55.215Z,0.67
2022-08-08T14:37:09.783Z,0.80
2022-08-08T14:40:24.546Z,0.80
2022-08-08T14:44:10.418Z,0.90
2022-08-08T14:47:21.748Z,1.63
2022-08-08T14:50:38.070Z,0.97
2022-08-08T14:53:55.099Z,1.00
2022-08-08T14:57:06.166Z,0.80
2022-08-08T15:00:18.611Z,0.80
2022-08-08T15:03:38.593Z,0.80
2022-08-08T15:06:56.028Z,0.90
2022-08-08T15:10:06.401Z,0.70
2022-08-08T15:13:19.409Z,1.00
2022-08-08T15:16:34.546Z,0.90
2022-08-08T15:19:44.747Z,0.83
2022-08-08T15:22:59.403Z,0.80
2022-08-08T15:26:13.033Z,0.70
2022-08-08T15:29:24.505Z,1.00
2022-08-08T15:32:35.918Z,0.90
2022-08-08T15:35:48.707Z,0.80
2022-08-08T15:39:00.202Z,0.90
2022-08-08T15:42:31.604Z,1.00
2022-08-08T15:45:48.824Z,0.80
2022-08-08T15:48:58.776Z,0.70
2022-08-08T15:52:12.184Z,0.90
2022-08-08T15:55:23.635Z,0.83
2022-08-08T15:58:33.729Z,0.80
2022-08-08T16:02:00.234Z,0.97
2022-08-08T16:05:13.971Z,0.73
2022-08-08T16:08:24.378Z,1.00
2022-08-08T16:13:08.803Z,0.93
2022-08-08T16:15:08.271Z,0.90
2022-08-08T16:18:18.089Z,0.97
2022-08-08T16:21:35.494Z,0.70
2022-08-08T16:24:50.516Z,0.90
2022-08-08T16:28:05.349Z,1.03
2022-08-08T16:31:34.351Z,0.90
2022-08-08T16:34:47.233Z,0.90
2022-08-08T16:38:00.261Z,0.80
2022-08-08T16:41:10.621Z,0.80
2022-08-08T16:44:33.761Z,0.97
2022-08-08T16:47:44.207Z,0.90
2022-08-08T16:50:54.166Z,0.70
2022-08-08T16:55:04.914Z,0.80
2022-08-08T16:58:13.799Z,1.17
2022-08-08T17:01:11.154Z,0.80
2022-08-08T17:04:26.437Z,0.80
2022-08-08T17:07:37.875Z,0.80
2022-08-08T17:10:58.558Z,0.83
2022-08-08T17:14:27.301Z,0.70
2022-08-08T17:18:02.829Z,0.83
2022-08-08T17:21:14.139Z,0.80
2022-08-08T17:24:28.050Z,0.80
2022-08-08T17:27:46.022Z,0.77
2022-08-08T17:30:57.043Z,0.80
2022-08-08T17:34:35.946Z,0.83
2022-08-08T17:37:38.136Z,0.73
2022-08-08T17:40:48.901Z,0.80
2022-08-08T17:44:02.371Z,0.67
2022-08-08T17:47:23.709Z,0.70
2022-08-08T17:50:35.862Z,0.70
2022-08-08T17:53:45.780Z,0.70
2022-08-08T17:57:08.118Z,0.50
2022-08-08T18:00:30.205Z,0.80
2022-08-08T18:03:42.867Z,0.80
2022-08-08T18:08:01.003Z,0.70
2022-08-08T18:10:40.335Z,0.90
2022-08-08T18:13:51.448Z,0.70
2022-08-08T18:17:02.766Z,0.50
2022-08-08T18:20:36.659Z,0.70
2022-08-08T18:23:56.239Z,0.70
2022-08-08T18:27:17.672Z,0.60
2022-08-08T18:30:28.119Z,0.70
2022-08-08T18:34:11.345Z,0.80
2022-08-08T18:37:17.605Z,0.80
2022-08-08T18:40:41.847Z,0.77
2022-08-08T18:43:58.171Z,0.77
2022-08-08T18:47:11.473Z,0.83
2022-08-08T18:50:24.366Z,0.70
2022-08-08T18:54:00.965Z,0.80
2022-08-08T18:57:11.068Z,0.70
2022-08-08T19:00:26.561Z,0.90
2022-08-08T19:04:05.460Z,1.13
2022-08-08T19:07:10.212Z,1.00
2022-08-08T19:10:20.318Z,0.93
2022-08-08T19:13:52.393Z,0.90
2022-08-08T19:17:06.365Z,0.80
2022-08-08T19:20:21.007Z,1.07
2022-08-08T19:23:35.390Z,0.90
2022-08-08T19:26:50.917Z,0.93
2022-08-08T19:30:04.779Z,0.87
2022-08-08T19:33:52.366Z,0.70
2022-08-08T19:37:00.147Z,0.73
2022-08-08T19:40:22.077Z,0.90
2022-08-08T19:44:02.407Z,0.97
2022-08-08T19:47:15.990Z,0.87
2022-08-08T19:50:27.143Z,0.80
2022-08-08T19:53:53.399Z,1.03
2022-08-08T19:57:07.608Z,0.97
2022-08-08T20:00:29.992Z,1.00
2022-08-08T20:04:01.759Z,1.00
2022-08-08T20:08:26.873Z,0.97
2022-08-08T20:10:45.568Z,1.10
2022-08-08T20:14:12.714Z,1.20
2022-08-08T20:17:29.396Z,1.13
